Time;durP1;ratioP1;P1;durP2;ratioP2;P2;SDS_P1;SDS_P2;PMS_P1;PMS_P2;Temp;Humidity;BMP_temperature;BMP_pressure;BME280_temperature;BME280_humidity;BME280_pressure;Samples;Min_cycle;Max_cycle;Signal;HPM_P1;HPM_P2
2022/04/12 00:01:42;;;;;;;7.25;4.85;;;;;;;;;;4936405;29;20072;-69
2022/04/12 00:04:15;;;;;;;7.68;4.97;;;;;;;;;;4936496;29;20067;-69
2022/04/12 00:06:49;;;;;;;6.18;4.50;;;;;;;;;;4936375;29;20043;-69
2022/04/12 00:09:17;;;;;;;6.18;4.32;;;;;;;;;;4936377;29;20074;-70
2022/04/12 00:12:10;;;;;;;5.93;4.47;;;;;;;;;;4936936;29;20123;-69
2022/04/12 00:14:40;;;;;;;7.10;4.70;;;;;;;;;;4936332;29;20103;-69
2022/04/12 00:20:03;;;;;;;7.65;4.80;;;;;;;;;;4936515;29;20051;-70
2022/04/12 00:22:32;;;;;;;8.63;5.40;;;;;;;;;;4936336;29;20094;-69
2022/04/12 00:25:07;;;;;;;7.18;4.70;;;;;;;;;;4936658;29;20051;-70
2022/04/12 00:31:30;;;;;;;8.38;4.95;;;;;;;;;;4934815;29;19922;-69
2022/04/12 00:33:59;;;;;;;9.50;5.57;;;;;;;;;;4936573;29;20126;-69
2022/04/12 00:36:26;;;;;;;8.20;5.57;;;;;;;;;;4935702;29;20063;-69
2022/04/12 00:39:00;;;;;;;11.00;6.53;;;;;;;;;;4935653;29;20078;-69
2022/04/12 00:41:35;;;;;;;7.72;5.68;;;;;;;;;;4936149;29;20448;-69
2022/04/12 00:44:03;;;;;;;9.13;5.63;;;;;;;;;;4950577;29;20513;-69
2022/04/12 00:46:36;;;;;;;7.72;5.45;;;;;;;;;;4936792;29;20378;-69
2022/04/12 00:49:08;;;;;;;8.48;5.05;;;;;;;;;;4935915;29;20051;-70
2022/04/12 00:51:35;;;;;;;8.43;5.60;;;;;;;;;;4936014;29;20571;-70
2022/04/12 00:54:08;;;;;;;9.00;5.50;;;;;;;;;;4936482;29;20475;-69
2022/04/12 00:56:39;;;;;;;8.38;5.75;;;;;;;;;;4935925;29;20470;-70
2022/04/12 00:59:08;;;;;;;7.57;5.20;;;;;;;;;;4936005;29;20066;-70
2022/04/12 01:01:39;;;;;;;12.13;6.40;;;;;;;;;;4936251;29;20048;-70
2022/04/12 01:04:11;;;;;;;9.35;6.35;;;;;;;;;;4936155;29;20058;-70
2022/04/12 01:06:40;;;;;;;12.48;7.38;;;;;;;;;;4935843;29;20040;-70
2022/04/12 01:09:09;;;;;;;9.00;5.78;;;;;;;;;;4935691;29;20055;-69
2022/04/12 01:11:40;;;;;;;11.55;6.60;;;;;;;;;;4935746;29;20471;-69
2022/04/12 01:14:20;;;;;;;10.52;6.22;;;;;;;;;;4936188;29;20051;-70
2022/04/12 01:17:21;;;;;;;9.88;5.78;;;;;;;;;;4935754;29;20071;-70
2022/04/12 01:19:48;;;;;;;8.65;6.10;;;;;;;;;;4935883;29;20040;-69
2022/04/12 01:22:18;;;;;;;8.88;5.57;;;;;;;;;;4935591;29;20047;-69
2022/04/12 01:24:47;;;;;;;12.93;7.03;;;;;;;;;;4935430;29;20499;-69
2022/04/12 01:27:20;;;;;;;10.77;5.75;;;;;;;;;;4935932;29;20043;-69
2022/04/12 01:29:57;;;;;;;10.50;6.70;;;;;;;;;;4935474;29;20107;-69
2022/04/12 01:32:25;;;;;;;10.07;6.43;;;;;;;;;;4935732;29;20483;-70
2022/04/12 01:34:53;;;;;;;9.90;6.40;;;;;;;;;;4935411;29;20110;-70
2022/04/12 01:37:22;;;;;;;10.48;6.78;;;;;;;;;;4935671;29;20048;-70
2022/04/12 01:39:56;;;;;;;9.88;6.72;;;;;;;;;;4935972;29;20044;-70
2022/04/12 01:42:50;;;;;;;10.75;6.57;;;;;;;;;;4937942;29;20111;-69
2022/04/12 01:45:20;;;;;;;13.35;7.65;;;;;;;;;;4939270;29;20501;-69
2022/04/12 01:47:50;;;;;;;12.43;7.60;;;;;;;;;;4938820;29;20388;-69
2022/04/12 01:50:23;;;;;;;10.55;7.53;;;;;;;;;;4938904;29;20570;-69
2022/04/12 01:52:54;;;;;;;10.88;7.38;;;;;;;;;;4938700;29;20193;-69
2022/04/12 01:55:23;;;;;;;12.85;7.13;;;;;;;;;;4953531;29;20080;-69
2022/04/12 01:57:55;;;;;;;12.90;6.95;;;;;;;;;;4938913;29;20040;-69
2022/04/12 02:00:27;;;;;;;9.40;6.68;;;;;;;;;;4938651;29;20127;-69
2022/04/12 02:02:56;;;;;;;13.05;7.50;;;;;;;;;;4938816;29;20043;-69
2022/04/12 02:05:25;;;;;;;10.18;6.40;;;;;;;;;;4938621;29;20518;-69
2022/04/12 02:07:54;;;;;;;11.30;7.10;;;;;;;;;;4938331;29;20071;-69
2022/04/12 02:10:22;;;;;;;10.68;7.22;;;;;;;;;;4938947;29;20040;-70
2022/04/12 02:12:52;;;;;;;11.20;7.28;;;;;;;;;;4938460;29;20107;-69
2022/04/12 02:15:44;;;;;;;9.88;7.03;;;;;;;;;;4938501;29;20066;-69
2022/04/12 02:18:13;;;;;;;11.68;7.68;;;;;;;;;;4938508;29;20502;-69
2022/04/12 02:20:42;;;;;;;12.18;7.60;;;;;;;;;;4938241;29;20040;-69
2022/04/12 02:23:12;;;;;;;10.63;7.43;;;;;;;;;;4938375;29;20068;-69
2022/04/12 02:25:41;;;;;;;12.05;7.47;;;;;;;;;;4938421;29;20039;-69
2022/04/12 02:28:10;;;;;;;12.43;7.97;;;;;;;;;;4938167;29;20044;-69
2022/04/12 02:30:43;;;;;;;11.98;8.18;;;;;;;;;;4938273;29;20047;-69
2022/04/12 02:33:12;;;;;;;14.18;8.02;;;;;;;;;;4938035;29;20075;-69
2022/04/12 02:35:43;;;;;;;13.57;8.35;;;;;;;;;;4938226;29;20470;-69
2022/04/12 02:38:13;;;;;;;12.00;7.65;;;;;;;;;;4937746;29;20080;-69
2022/04/12 02:40:42;;;;;;;13.55;8.63;;;;;;;;;;4937910;29;20490;-69
2022/04/12 02:43:11;;;;;;;11.57;8.15;;;;;;;;;;4937809;29;20047;-69
2022/04/12 02:45:47;;;;;;;13.40;8.65;;;;;;;;;;4937918;29;20115;-70
2022/04/12 02:48:14;;;;;;;15.10;8.52;;;;;;;;;;4937849;29;20095;-69
2022/04/12 02:50:47;;;;;;;12.80;8.40;;;;;;;;;;4937734;29;20083;-69
2022/04/12 02:53:15;;;;;;;13.57;8.65;;;;;;;;;;4937019;29;20459;-69
2022/04/12 02:55:43;;;;;;;12.52;8.18;;;;;;;;;;4937791;29;20039;-69
2022/04/12 02:58:17;;;;;;;16.85;8.77;;;;;;;;;;4937840;29;20443;-69
2022/04/12 03:00:51;;;;;;;11.95;8.13;;;;;;;;;;4937659;29;20110;-69
2022/04/12 03:03:19;;;;;;;15.27;8.40;;;;;;;;;;4937259;29;20039;-69
2022/04/12 03:05:50;;;;;;;13.82;8.35;;;;;;;;;;4937712;29;20040;-69
2022/04/12 03:08:20;;;;;;;13.60;8.07;;;;;;;;;;4937746;29;20082;-70
2022/04/12 03:10:49;;;;;;;12.43;8.23;;;;;;;;;;4937528;29;20123;-69
2022/04/12 03:13:41;;;;;;;13.38;8.75;;;;;;;;;;4937811;29;20050;-70
2022/04/12 03:16:36;;;;;;;15.55;9.00;;;;;;;;;;4937679;29;20048;-70
2022/04/12 03:19:28;;;;;;;16.67;8.75;;;;;;;;;;4936656;29;20075;-70
2022/04/12 03:22:21;;;;;;;14.80;9.32;;;;;;;;;;4936930;28;20529;-69
2022/04/12 03:24:50;;;;;;;13.50;8.88;;;;;;;;;;4937252;29;20067;-70
2022/04/12 03:27:24;;;;;;;13.27;9.00;;;;;;;;;;4937131;29;20058;-70
2022/04/12 03:29:56;;;;;;;13.18;8.77;;;;;;;;;;4937078;29;20467;-70
2022/04/12 03:32:30;;;;;;;12.88;8.60;;;;;;;;;;4937263;29;20119;-70
2022/04/12 03:34:58;;;;;;;14.70;8.63;;;;;;;;;;4936959;29;20075;-69
2022/04/12 03:37:31;;;;;;;15.68;8.38;;;;;;;;;;4936744;29;20419;-69
2022/04/12 03:39:59;;;;;;;17.65;9.23;;;;;;;;;;4936588;29;20043;-70
2022/04/12 03:42:29;;;;;;;12.68;8.43;;;;;;;;;;4936545;29;20044;-69
2022/04/12 03:44:58;;;;;;;15.20;8.77;;;;;;;;;;4936906;29;20118;-70
2022/04/12 03:47:32;;;;;;;15.20;8.40;;;;;;;;;;4936653;29;20050;-69
2022/04/12 03:50:25;;;;;;;15.18;8.98;;;;;;;;;;4937029;29;20145;-69
2022/04/12 03:52:54;;;;;;;15.00;8.25;;;;;;;;;;4936436;29;20099;-69
2022/04/12 03:55:31;;;;;;;12.60;8.80;;;;;;;;;;4938880;29;20723;-70
2022/04/12 03:58:01;;;;;;;10.38;7.70;;;;;;;;;;4955550;28;20043;-70
2022/04/12 04:00:31;;;;;;;13.73;8.52;;;;;;;;;;4955447;28;20047;-70
2022/04/12 04:02:58;;;;;;;11.90;8.13;;;;;;;;;;4955793;28;20048;-70
2022/04/12 04:05:33;;;;;;;13.13;8.15;;;;;;;;;;4955818;28;20409;-70
2022/04/12 04:08:02;;;;;;;15.40;8.93;;;;;;;;;;4955375;28;20134;-70
2022/04/12 04:10:31;;;;;;;11.82;7.88;;;;;;;;;;4955601;28;20491;-70
2022/04/12 04:13:01;;;;;;;11.35;7.78;;;;;;;;;;4955373;28;20061;-70
2022/04/12 04:15:41;;;;;;;12.82;8.23;;;;;;;;;;4955498;28;20071;-70
2022/04/12 04:18:10;;;;;;;13.18;8.52;;;;;;;;;;4955300;28;20070;-69
2022/04/12 04:20:43;;;;;;;13.50;8.52;;;;;;;;;;4955657;28;20043;-69
2022/04/12 04:23:12;;;;;;;13.27;8.32;;;;;;;;;;4955569;28;20122;-69
2022/04/12 04:25:41;;;;;;;15.40;8.98;;;;;;;;;;4955463;28;20044;-69
2022/04/12 04:28:21;;;;;;;14.52;8.73;;;;;;;;;;4955340;28;20074;-69
2022/04/12 04:31:13;;;;;;;10.43;8.27;;;;;;;;;;4955523;28;20118;-69
2022/04/12 04:33:46;;;;;;;12.77;8.85;;;;;;;;;;4955248;28;20047;-69
2022/04/12 04:36:13;;;;;;;22.02;9.40;;;;;;;;;;4954845;28;20048;-68
2022/04/12 04:38:42;;;;;;;12.30;8.70;;;;;;;;;;4954856;28;20075;-69
2022/04/12 04:41:09;;;;;;;15.18;8.90;;;;;;;;;;4954902;28;20043;-69
2022/04/12 04:43:40;;;;;;;14.02;9.05;;;;;;;;;;4955315;28;20043;-69
2022/04/12 04:46:14;;;;;;;15.60;9.00;;;;;;;;;;4955228;28;20375;-69
2022/04/12 04:48:42;;;;;;;15.27;8.82;;;;;;;;;;4955080;28;20050;-69
2022/04/12 04:51:14;;;;;;;14.25;8.85;;;;;;;;;;4955212;28;20398;-70
2022/04/12 04:53:56;;;;;;;14.48;8.35;;;;;;;;;;4954914;28;20106;-69
2022/04/12 04:56:25;;;;;;;13.23;8.70;;;;;;;;;;4941171;28;20079;-70
2022/04/12 04:58:54;;;;;;;10.75;8.32;;;;;;;;;;4944108;29;20509;-69
2022/04/12 05:01:24;;;;;;;17.20;8.73;;;;;;;;;;4947987;28;20122;-69
2022/04/12 05:03:53;;;;;;;13.40;8.77;;;;;;;;;;4955008;28;20043;-69
2022/04/12 05:06:23;;;;;;;13.95;8.73;;;;;;;;;;4955141;28;20047;-69
2022/04/12 05:08:51;;;;;;;13.20;8.52;;;;;;;;;;4955113;28;20111;-69
2022/04/12 05:11:20;;;;;;;11.85;8.20;;;;;;;;;;4956876;28;20049;-71
2022/04/12 05:13:48;;;;;;;14.63;8.02;;;;;;;;;;4956353;28;20398;-69
2022/04/12 05:16:21;;;;;;;13.95;8.68;;;;;;;;;;4955502;28;20053;-69
2022/04/12 05:18:51;;;;;;;11.90;8.65;;;;;;;;;;4958453;28;20082;-70
2022/04/12 05:21:20;;;;;;;11.60;8.52;;;;;;;;;;4958158;28;20074;-69
2022/04/12 05:23:47;;;;;;;10.98;8.23;;;;;;;;;;4958033;28;20050;-71
2022/04/12 05:26:18;;;;;;;11.00;7.75;;;;;;;;;;4958663;28;20058;-68
2022/04/12 05:28:45;;;;;;;8.93;6.97;;;;;;;;;;4958405;28;20483;-68
2022/04/12 05:31:38;;;;;;;9.30;6.97;;;;;;;;;;4958691;28;20454;-68
2022/04/12 05:34:06;;;;;;;11.35;7.18;;;;;;;;;;4958144;28;20090;-70
2022/04/12 05:36:34;;;;;;;11.90;7.45;;;;;;;;;;4957913;28;20064;-70
2022/04/12 05:39:06;;;;;;;10.27;7.53;;;;;;;;;;4958448;28;20043;-69
2022/04/12 05:41:33;;;;;;;10.75;7.90;;;;;;;;;;4957816;28;20039;-68
2022/04/12 05:44:03;;;;;;;7.45;6.60;;;;;;;;;;4957978;28;20046;-68
2022/04/12 05:46:31;;;;;;;10.02;7.20;;;;;;;;;;4957784;28;20067;-68
2022/04/12 05:49:06;;;;;;;9.90;7.07;;;;;;;;;;4958238;28;20102;-68
2022/04/12 05:54:06;;;;;;;8.82;6.30;;;;;;;;;;4958259;28;19961;-68
2022/04/12 05:56:33;;;;;;;8.95;7.40;;;;;;;;;;4958009;28;20046;-68
2022/04/12 05:59:12;;;;;;;8.55;6.50;;;;;;;;;;4957913;28;20098;-68
2022/04/12 06:02:04;;;;;;;7.53;6.45;;;;;;;;;;4957753;28;20086;-68
2022/04/12 06:04:34;;;;;;;11.05;7.90;;;;;;;;;;4957994;28;20050;-68
2022/04/12 06:07:04;;;;;;;12.15;7.93;;;;;;;;;;4957754;28;20047;-68
2022/04/12 06:09:33;;;;;;;10.18;6.72;;;;;;;;;;4957919;28;20482;-70
2022/04/12 06:12:07;;;;;;;10.38;7.82;;;;;;;;;;4957753;28;20086;-69
2022/04/12 06:14:36;;;;;;;11.40;7.32;;;;;;;;;;4957854;28;20039;-68
2022/04/12 06:17:04;;;;;;;10.88;7.10;;;;;;;;;;4957470;28;20036;-68
2022/04/12 06:19:40;;;;;;;9.05;7.10;;;;;;;;;;4957995;28;20505;-70
2022/04/12 06:22:32;;;;;;;10.15;8.75;;;;;;;;;;4957522;28;20050;-68
2022/04/12 06:25:25;;;;;;;11.35;8.32;;;;;;;;;;4957292;28;20067;-68
2022/04/12 06:27:55;;;;;;;10.93;7.72;;;;;;;;;;4956122;28;20039;-68
2022/04/12 06:30:25;;;;;;;10.48;7.78;;;;;;;;;;4957206;28;20074;-68
2022/04/12 06:33:01;;;;;;;7.88;7.05;;;;;;;;;;4957881;28;20046;-68
2022/04/12 06:35:30;;;;;;;9.80;7.53;;;;;;;;;;4957213;28;20051;-68
2022/04/12 06:37:59;;;;;;;9.00;7.05;;;;;;;;;;4956977;28;20126;-68
2022/04/12 06:40:35;;;;;;;10.68;8.10;;;;;;;;;;4957153;28;20040;-68
2022/04/12 06:43:03;;;;;;;9.32;7.93;;;;;;;;;;4957540;28;20066;-68
2022/04/12 06:45:32;;;;;;;10.70;7.50;;;;;;;;;;4957099;28;20122;-70
2022/04/12 06:48:05;;;;;;;8.75;7.10;;;;;;;;;;4956973;28;20102;-69
2022/04/12 06:50:33;;;;;;;9.52;6.60;;;;;;;;;;4956903;28;20043;-68
2022/04/12 06:53:03;;;;;;;7.68;6.30;;;;;;;;;;4956746;28;20053;-70
2022/04/12 06:55:35;;;;;;;10.20;7.10;;;;;;;;;;4956870;28;20114;-69
2022/04/12 06:58:04;;;;;;;8.98;7.10;;;;;;;;;;4956852;28;20513;-69
2022/04/12 07:00:34;;;;;;;8.15;6.30;;;;;;;;;;4956323;28;20043;-69
2022/04/12 07:03:07;;;;;;;10.02;6.47;;;;;;;;;;4956755;28;20054;-69
2022/04/12 07:05:36;;;;;;;9.68;6.18;;;;;;;;;;4956678;28;20106;-69
2022/04/12 07:08:05;;;;;;;7.63;6.22;;;;;;;;;;4956649;28;20051;-69
2022/04/12 07:10:37;;;;;;;10.57;6.47;;;;;;;;;;4956724;28;20454;-69
2022/04/12 07:13:06;;;;;;;9.35;6.40;;;;;;;;;;4956772;28;20446;-69
2022/04/12 07:15:34;;;;;;;8.43;7.07;;;;;;;;;;4956563;28;20051;-69
2022/04/12 07:18:10;;;;;;;7.80;6.00;;;;;;;;;;4956736;28;20039;-69
2022/04/12 07:20:39;;;;;;;6.90;5.22;;;;;;;;;;4956386;28;20066;-69
2022/04/12 07:23:08;;;;;;;9.35;6.10;;;;;;;;;;4956515;28;20047;-69
2022/04/12 07:25:41;;;;;;;9.10;5.80;;;;;;;;;;4956533;28;20479;-69
2022/04/12 07:28:09;;;;;;;9.30;6.97;;;;;;;;;;4956279;28;20051;-69
2022/04/12 07:30:38;;;;;;;8.65;6.47;;;;;;;;;;4956089;28;20487;-69
2022/04/12 07:33:18;;;;;;;10.00;6.70;;;;;;;;;;4955503;29;20047;-70
2022/04/12 07:35:46;;;;;;;7.65;5.03;;;;;;;;;;4956557;28;20427;-70
2022/04/12 07:38:16;;;;;;;7.72;5.10;;;;;;;;;;4955861;28;20078;-70
2022/04/12 07:40:47;;;;;;;7.25;4.97;;;;;;;;;;4955749;28;20569;-70
2022/04/12 07:43:16;;;;;;;6.03;4.00;;;;;;;;;;4956026;28;20095;-70
2022/04/12 07:45:43;;;;;;;6.88;6.28;;;;;;;;;;4954745;29;20047;-70
2022/04/12 07:48:16;;;;;;;7.18;3.60;;;;;;;;;;4956553;28;20051;-70
2022/04/12 07:50:44;;;;;;;4.32;3.35;;;;;;;;;;4955815;28;20126;-68
2022/04/12 07:53:15;;;;;;;4.88;3.42;;;;;;;;;;4955666;28;20118;-70
2022/04/12 07:55:50;;;;;;;4.13;3.10;;;;;;;;;;4956069;28;20050;-70
2022/04/12 07:58:20;;;;;;;3.85;3.22;;;;;;;;;;4955824;28;20482;-70
2022/04/12 08:00:49;;;;;;;3.83;2.72;;;;;;;;;;4955640;28;20123;-70
2022/04/12 08:03:18;;;;;;;3.65;3.05;;;;;;;;;;4956313;28;20039;-70
2022/04/12 08:05:55;;;;;;;3.55;3.00;;;;;;;;;;4956108;28;20070;-70
2022/04/12 08:08:23;;;;;;;5.28;3.08;;;;;;;;;;4955649;28;20478;-70
2022/04/12 08:10:52;;;;;;;6.45;3.20;;;;;;;;;;4955650;28;20442;-70
2022/04/12 08:13:24;;;;;;;6.47;3.25;;;;;;;;;;4956131;28;20039;-70
2022/04/12 08:15:52;;;;;;;4.63;3.20;;;;;;;;;;4955686;28;20043;-70
2022/04/12 08:18:22;;;;;;;4.72;2.70;;;;;;;;;;4955390;28;20047;-70
2022/04/12 08:20:58;;;;;;;6.50;2.88;;;;;;;;;;4955505;28;20413;-70
2022/04/12 08:23:26;;;;;;;3.10;2.47;;;;;;;;;;4954256;29;20042;-69
2022/04/12 08:25:56;;;;;;;3.78;2.65;;;;;;;;;;4955374;28;20126;-69
2022/04/12 08:28:28;;;;;;;4.93;2.88;;;;;;;;;;4955392;28;20051;-69
2022/04/12 08:30:55;;;;;;;3.95;2.65;;;;;;;;;;4955434;28;20460;-68
2022/04/12 08:33:26;;;;;;;5.00;2.60;;;;;;;;;;4954964;28;20070;-69
2022/04/12 08:35:57;;;;;;;4.60;2.90;;;;;;;;;;4955602;28;20487;-68
2022/04/12 08:38:27;;;;;;;2.70;1.90;;;;;;;;;;4954975;28;20560;-68
2022/04/12 08:40:55;;;;;;;5.65;3.20;;;;;;;;;;4954520;28;20051;-68
2022/04/12 08:46:38;;;;;;;12.25;4.10;;;;;;;;;;4935826;29;20075;-69
2022/04/12 08:49:09;;;;;;;24.55;11.80;;;;;;;;;;4935447;29;20091;-68
2022/04/12 08:51:52;;;;;;;10.52;3.75;;;;;;;;;;4937365;29;20075;-68
2022/04/12 08:54:49;;;;;;;3.53;2.55;;;;;;;;;;4940245;29;20043;-68
2022/04/12 08:57:16;;;;;;;5.20;2.88;;;;;;;;;;4939578;29;20111;-70
2022/04/12 08:59:44;;;;;;;5.90;3.03;;;;;;;;;;4939502;29;20043;-68
2022/04/12 09:02:12;;;;;;;5.70;2.85;;;;;;;;;;4939713;29;20040;-68
2022/04/12 09:04:46;;;;;;;6.95;3.92;;;;;;;;;;4939942;29;20039;-68
2022/04/12 09:07:14;;;;;;;4.53;2.95;;;;;;;;;;4939749;29;20044;-68
2022/04/12 09:09:44;;;;;;;6.43;3.20;;;;;;;;;;4939402;29;20036;-68
2022/04/12 09:12:17;;;;;;;5.28;3.53;;;;;;;;;;4939982;29;20097;-68
2022/04/12 09:14:47;;;;;;;6.20;3.53;;;;;;;;;;4940094;29;20135;-68
2022/04/12 09:17:19;;;;;;;5.60;2.60;;;;;;;;;;4938126;29;20412;-68
2022/04/12 09:19:52;;;;;;;5.18;2.58;;;;;;;;;;4940048;29;20180;-68
2022/04/12 09:22:25;;;;;;;4.53;2.45;;;;;;;;;;4939447;29;20068;-70
2022/04/12 09:24:56;;;;;;;5.25;2.40;;;;;;;;;;4938099;29;20067;-69
2022/04/12 09:27:27;;;;;;;6.40;3.15;;;;;;;;;;4939477;29;20048;-70
2022/04/12 09:30:05;;;;;;;2.65;2.33;;;;;;;;;;4939267;29;20575;-70
2022/04/12 09:32:37;;;;;;;5.03;2.50;;;;;;;;;;4939177;29;20063;-70
2022/04/12 09:35:07;;;;;;;3.60;2.38;;;;;;;;;;4939026;29;20048;-70
2022/04/12 09:37:39;;;;;;;7.15;2.80;;;;;;;;;;4939152;29;20059;-70
2022/04/12 09:40:11;;;;;;;3.40;2.28;;;;;;;;;;4939142;29;20064;-70
2022/04/12 09:42:50;;;;;;;3.63;2.20;;;;;;;;;;4938969;29;20086;-68
2022/04/12 09:45:17;;;;;;;2.72;1.90;;;;;;;;;;4938966;29;20043;-70
2022/04/12 09:48:10;;;;;;;7.18;2.60;;;;;;;;;;4938723;29;20089;-70
2022/04/12 09:51:02;;;;;;;4.43;2.20;;;;;;;;;;4938861;29;20040;-70
2022/04/12 09:53:45;;;;;;;3.30;2.13;;;;;;;;;;4939148;29;20055;-70
2022/04/12 09:56:22;;;;;;;3.50;1.98;;;;;;;;;;4939460;29;20044;-70
2022/04/12 09:58:54;;;;;;;5.68;2.22;;;;;;;;;;4939061;29;20040;-70
2022/04/12 10:01:28;;;;;;;4.00;2.30;;;;;;;;;;4938815;29;20047;-70
2022/04/12 10:03:59;;;;;;;2.75;2.10;;;;;;;;;;4938485;29;20115;-70
2022/04/12 10:06:29;;;;;;;6.43;2.13;;;;;;;;;;4938692;29;20043;-69
2022/04/12 10:09:05;;;;;;;5.00;2.38;;;;;;;;;;4938671;29;20046;-70
2022/04/12 10:11:33;;;;;;;3.03;2.20;;;;;;;;;;4938913;29;20047;-70
2022/04/12 10:14:03;;;;;;;6.28;2.40;;;;;;;;;;4938257;29;20495;-70
2022/04/12 10:16:39;;;;;;;4.05;2.10;;;;;;;;;;4938549;29;20046;-70
2022/04/12 10:19:09;;;;;;;4.82;2.33;;;;;;;;;;4938443;29;20059;-70
2022/04/12 10:21:39;;;;;;;6.53;2.70;;;;;;;;;;4938448;29;20123;-70
2022/04/12 10:24:14;;;;;;;6.50;2.60;;;;;;;;;;4938701;29;20487;-69
2022/04/12 10:26:45;;;;;;;6.30;2.92;;;;;;;;;;4938501;29;20039;-70
2022/04/12 10:29:15;;;;;;;4.10;2.20;;;;;;;;;;4938002;29;20510;-70
2022/04/12 10:32:07;;;;;;;5.60;2.70;;;;;;;;;;4938430;29;20403;-70
2022/04/12 10:35:23;;;;;;;3.90;2.65;;;;;;;;;;4938275;29;20098;-69
2022/04/12 10:37:53;;;;;;;5.18;2.55;;;;;;;;;;4938150;29;20095;-70
2022/04/12 10:40:44;;;;;;;7.30;4.13;;;;;;;;;;4938395;29;20054;-70
2022/04/12 10:43:14;;;;;;;50.78;7.30;;;;;;;;;;4936675;29;20087;-70
2022/04/12 10:45:46;;;;;;;4.43;2.97;;;;;;;;;;4938281;29;20402;-70
2022/04/12 10:48:27;;;;;;;4.60;2.80;;;;;;;;;;4937965;29;20035;-70
2022/04/12 10:50:56;;;;;;;4.80;2.20;;;;;;;;;;4937983;29;20480;-70
2022/04/12 10:53:37;;;;;;;2.78;2.08;;;;;;;;;;4937864;29;20514;-70
2022/04/12 10:56:07;;;;;;;4.47;2.05;;;;;;;;;;4937855;29;20046;-70
2022/04/12 10:58:41;;;;;;;4.22;2.13;;;;;;;;;;4938070;29;20398;-70
2022/04/12 11:01:10;;;;;;;3.15;2.20;;;;;;;;;;4937928;29;20047;-70
2022/04/12 11:03:43;;;;;;;3.45;2.30;;;;;;;;;;4938248;29;20380;-70
2022/04/12 11:06:22;;;;;;;6.20;2.30;;;;;;;;;;4937640;29;20044;-70
2022/04/12 11:08:53;;;;;;;3.63;2.13;;;;;;;;;;4937661;29;20103;-70
2022/04/12 11:11:27;;;;;;;4.50;2.35;;;;;;;;;;4937427;29;20052;-70
2022/04/12 11:14:18;;;;;;;4.40;1.95;;;;;;;;;;4936943;29;20074;-70
2022/04/12 11:16:51;;;;;;;7.95;2.65;;;;;;;;;;4937204;29;20497;-70
2022/04/12 11:22:43;;;;;;;2.45;2.20;;;;;;;;;;4937476;29;20054;-70
2022/04/12 11:25:41;;;;;;;4.25;2.47;;;;;;;;;;4942403;29;20418;-70
2022/04/12 11:28:09;;;;;;;3.67;1.95;;;;;;;;;;4956484;28;20522;-70
2022/04/12 11:30:36;;;;;;;5.20;2.45;;;;;;;;;;4955573;28;20506;-69
2022/04/12 11:33:16;;;;;;;2.88;2.20;;;;;;;;;;4956191;28;20126;-69
2022/04/12 11:35:47;;;;;;;3.92;2.53;;;;;;;;;;4951368;29;20051;-68
2022/04/12 11:38:20;;;;;;;3.85;2.20;;;;;;;;;;4955515;28;20114;-70
2022/04/12 11:40:47;;;;;;;2.67;1.48;;;;;;;;;;4956319;28;20051;-69
2022/04/12 11:43:24;;;;;;;4.10;1.70;;;;;;;;;;4955794;28;20046;-70
2022/04/12 11:45:58;;;;;;;3.20;2.08;;;;;;;;;;4956057;28;20383;-75
2022/04/12 11:48:29;;;;;;;3.72;1.73;;;;;;;;;;4956029;28;20043;-70
2022/04/12 11:50:59;;;;;;;3.40;2.00;;;;;;;;;;4955852;28;20036;-70
2022/04/12 11:53:30;;;;;;;2.33;1.75;;;;;;;;;;4955646;28;20073;-70
2022/04/12 11:56:05;;;;;;;2.38;1.80;;;;;;;;;;4952393;28;20039;-71
2022/04/12 11:58:32;;;;;;;3.55;1.67;;;;;;;;;;4947504;28;20071;-71
2022/04/12 12:01:02;;;;;;;3.65;1.65;;;;;;;;;;4942408;29;20374;-70
2022/04/12 12:03:31;;;;;;;3.75;1.85;;;;;;;;;;4952236;29;20033;-68
2022/04/12 12:05:58;;;;;;;2.35;1.85;;;;;;;;;;4952798;28;20114;-69
2022/04/12 12:08:30;;;;;;;6.05;3.15;;;;;;;;;;4970015;28;20098;-69
2022/04/12 12:11:09;;;;;;;2.55;1.92;;;;;;;;;;4955560;28;20036;-69
2022/04/12 12:13:38;;;;;;;3.08;1.30;;;;;;;;;;4955797;28;20045;-69
2022/04/12 12:16:14;;;;;;;2.22;1.90;;;;;;;;;;4942821;28;20043;-68
2022/04/12 12:18:46;;;;;;;3.60;2.47;;;;;;;;;;4934940;28;20048;-69
2022/04/12 12:21:19;;;;;;;10.20;2.40;;;;;;;;;;4936546;29;20047;-69
2022/04/12 12:23:55;;;;;;;2.38;1.52;;;;;;;;;;4936446;29;20047;-69
2022/04/12 12:26:47;;;;;;;2.15;1.58;;;;;;;;;;4936086;29;20040;-69
2022/04/12 12:29:21;;;;;;;2.58;1.35;;;;;;;;;;4934969;29;20044;-69
2022/04/12 12:31:49;;;;;;;3.30;1.58;;;;;;;;;;4936338;29;20042;-71
2022/04/12 12:34:31;;;;;;;11.88;1.70;;;;;;;;;;4935857;29;20040;-69
2022/04/12 12:36:59;;;;;;;5.25;1.70;;;;;;;;;;4934732;29;20415;-69
2022/04/12 12:39:30;;;;;;;1.88;1.55;;;;;;;;;;4935464;29;20048;-69
2022/04/12 12:41:58;;;;;;;3.13;1.75;;;;;;;;;;4936416;29;20055;-70
2022/04/12 12:44:33;;;;;;;3.17;1.48;;;;;;;;;;4936279;29;20047;-70
2022/04/12 12:47:04;;;;;;;1.98;1.52;;;;;;;;;;4936313;29;20044;-69
2022/04/12 12:49:56;;;;;;;2.90;1.50;;;;;;;;;;4935848;29;20050;-69
2022/04/12 12:52:49;;;;;;;4.07;1.80;;;;;;;;;;4936540;29;20055;-68
2022/04/12 12:55:23;;;;;;;2.65;1.63;;;;;;;;;;4936209;29;20053;-68
2022/04/12 12:58:03;;;;;;;6.38;2.38;;;;;;;;;;4936271;29;20115;-69
2022/04/12 13:00:56;;;;;;;4.53;1.50;;;;;;;;;;4936075;29;20040;-69
2022/04/12 13:03:49;;;;;;;3.78;1.45;;;;;;;;;;4936132;29;20479;-68
2022/04/12 13:06:21;;;;;;;2.25;1.40;;;;;;;;;;4936196;29;20040;-68
2022/04/12 13:09:05;;;;;;;3.03;1.80;;;;;;;;;;4936022;29;20048;-70
2022/04/12 13:11:39;;;;;;;1.45;1.30;;;;;;;;;;4935758;29;20048;-70
2022/04/12 13:14:07;;;;;;;1.85;1.55;;;;;;;;;;4936082;29;20418;-70
2022/04/12 13:16:39;;;;;;;1.77;1.33;;;;;;;;;;4936097;29;20054;-70
2022/04/12 13:19:08;;;;;;;4.15;1.40;;;;;;;;;;4936147;29;20462;-70
2022/04/12 13:21:36;;;;;;;2.83;1.70;;;;;;;;;;4935847;29;20054;-70
2022/04/12 13:24:13;;;;;;;4.07;1.70;;;;;;;;;;4935580;29;20054;-70
2022/04/12 13:26:40;;;;;;;2.97;1.65;;;;;;;;;;4935600;29;20100;-70
2022/04/12 13:29:34;;;;;;;2.47;1.33;;;;;;;;;;4935671;29;20071;-71
2022/04/12 13:32:26;;;;;;;2.20;1.60;;;;;;;;;;4935918;29;20123;-69
2022/04/12 13:34:59;;;;;;;5.30;1.63;;;;;;;;;;4935931;29;20395;-70
2022/04/12 13:37:26;;;;;;;2.05;1.35;;;;;;;;;;4936754;29;20060;-70
2022/04/12 13:39:59;;;;;;;4.38;1.58;;;;;;;;;;4939061;29;20050;-69
2022/04/12 13:42:32;;;;;;;2.47;1.60;;;;;;;;;;4939057;29;20503;-69
2022/04/12 13:44:59;;;;;;;2.45;1.67;;;;;;;;;;4939307;29;20078;-69
2022/04/12 13:47:28;;;;;;;3.22;1.63;;;;;;;;;;4939332;29;20044;-69
2022/04/12 13:49:59;;;;;;;3.20;1.58;;;;;;;;;;4940302;29;20102;-69
2022/04/12 13:52:29;;;;;;;4.10;1.70;;;;;;;;;;4954422;29;20442;-69
2022/04/12 13:55:22;;;;;;;2.47;1.30;;;;;;;;;;4958200;28;20094;-70
2022/04/12 14:01:39;;;;;;;2.90;1.92;;;;;;;;;;4938711;29;20048;-69
2022/04/12 14:04:09;;;;;;;2.83;1.67;;;;;;;;;;4939018;29;20036;-69
2022/04/12 14:06:36;;;;;;;2.22;1.50;;;;;;;;;;4939553;29;20035;-69
2022/04/12 14:09:30;;;;;;;2.67;1.25;;;;;;;;;;4957927;28;20502;-69
2022/04/12 14:11:58;;;;;;;2.72;1.65;;;;;;;;;;4957908;28;20079;-68
2022/04/12 14:14:25;;;;;;;1.65;1.45;;;;;;;;;;4958101;28;20542;-75
2022/04/12 14:16:55;;;;;;;6.43;1.60;;;;;;;;;;4957628;28;20047;-74
2022/04/12 14:19:28;;;;;;;3.10;1.20;;;;;;;;;;4957706;28;20126;-74
2022/04/12 14:21:57;;;;;;;3.25;1.73;;;;;;;;;;4958145;28;20047;-73
2022/04/12 14:24:28;;;;;;;2.63;1.60;;;;;;;;;;4957389;28;20046;-74
2022/04/12 14:27:03;;;;;;;3.75;1.77;;;;;;;;;;4957815;28;20399;-74
2022/04/12 14:29:32;;;;;;;1.90;1.38;;;;;;;;;;4972281;28;20111;-74
2022/04/12 14:32:00;;;;;;;1.90;1.30;;;;;;;;;;4957659;28;20415;-74
2022/04/12 14:34:53;;;;;;;3.20;1.50;;;;;;;;;;4949106;28;20070;-73
2022/04/12 14:37:20;;;;;;;2.55;1.63;;;;;;;;;;4938483;29;20044;-74
2022/04/12 14:40:13;;;;;;;3.03;1.50;;;;;;;;;;4938113;29;20046;-74
2022/04/12 14:43:05;;;;;;;3.55;1.63;;;;;;;;;;4938150;29;20047;-74
2022/04/12 14:45:57;;;;;;;2.95;1.70;;;;;;;;;;4937994;29;20058;-75
2022/04/12 14:48:50;;;;;;;4.90;2.35;;;;;;;;;;4937327;29;20047;-75
2022/04/12 14:51:19;;;;;;;3.80;1.92;;;;;;;;;;4938055;29;20082;-75
2022/04/12 14:53:53;;;;;;;4.80;2.70;;;;;;;;;;4937763;29;20509;-75
2022/04/12 14:56:26;;;;;;;5.55;1.63;;;;;;;;;;4937663;29;20046;-75
2022/04/12 14:58:53;;;;;;;3.92;2.30;;;;;;;;;;4952580;29;20119;-75
2022/04/12 15:01:25;;;;;;;3.05;2.10;;;;;;;;;;4937787;29;20052;-75
2022/04/12 15:03:55;;;;;;;4.70;2.08;;;;;;;;;;4937828;29;20055;-75
2022/04/12 15:06:24;;;;;;;5.97;1.88;;;;;;;;;;4937346;29;20048;-75
2022/04/12 15:09:00;;;;;;;7.43;3.30;;;;;;;;;;4937835;29;20044;-74
2022/04/12 15:11:29;;;;;;;2.58;1.90;;;;;;;;;;4937593;29;20550;-74
2022/04/12 15:14:00;;;;;;;4.50;2.30;;;;;;;;;;4937028;29;20050;-74
2022/04/12 15:16:33;;;;;;;2.53;1.90;;;;;;;;;;4937214;29;20164;-74
2022/04/12 15:19:03;;;;;;;4.25;2.08;;;;;;;;;;4937240;29;20050;-74
2022/04/12 15:21:39;;;;;;;7.63;3.30;;;;;;;;;;4936901;29;20063;-74
2022/04/12 15:24:34;;;;;;;6.47;3.45;;;;;;;;;;4937081;29;20047;-74
2022/04/12 15:27:26;;;;;;;8.35;3.92;;;;;;;;;;4937128;29;20043;-75
2022/04/12 15:29:56;;;;;;;5.47;2.20;;;;;;;;;;4937107;29;20099;-75
2022/04/12 15:32:49;;;;;;;6.57;2.60;;;;;;;;;;4937405;29;20051;-74
2022/04/12 15:35:21;;;;;;;3.70;2.10;;;;;;;;;;4936989;29;20047;-74